Time;durP1;ratioP1;P1;durP2;ratioP2;P2;SDS_P1;SDS_P2;PMS_P1;PMS_P2;Temp;Humidity;BMP_temperature;BMP_pressure;BME280_temperature;BME280_humidity;BME280_pressure;Samples;Min_cycle;Max_cycle;Signal;HPM_P1;HPM_P2
2022/10/28 00:01:56;;;;;;;1999.90;999.90;;;;;;;11.27;100.00;101329.31;5001412;28;20045;-77
2022/10/28 00:04:22;;;;;;;1999.90;999.90;;;;;;;11.26;100.00;101341.63;4999509;28;20038;-77
2022/10/28 00:06:47;;;;;;;1999.90;999.90;;;;;;;11.22;100.00;101342.50;4997721;28;20061;-77
2022/10/28 00:09:12;;;;;;;1999.90;999.90;;;;;;;11.16;100.00;101351.28;4999306;28;20034;-77
2022/10/28 00:11:38;;;;;;;1999.90;999.90;;;;;;;11.15;100.00;101357.44;5000473;28;20041;-77
2022/10/28 00:14:05;;;;;;;1999.90;999.90;;;;;;;11.18;100.00;101356.56;5001183;28;20556;-77
2022/10/28 00:16:33;;;;;;;1999.90;999.90;;;;;;;11.23;100.00;101349.53;4999617;28;20045;-77
2022/10/28 00:19:00;;;;;;;1999.90;999.90;;;;;;;11.29;100.00;101340.75;4999300;28;20049;-77
2022/10/28 00:21:30;;;;;;;1999.90;999.90;;;;;;;11.39;100.00;101343.44;4999647;28;20121;-77
2022/10/28 00:23:56;;;;;;;1999.90;999.90;;;;;;;11.45;100.00;101341.69;4996981;28;20112;-77
2022/10/28 00:26:24;;;;;;;1999.90;999.90;;;;;;;11.54;100.00;101349.66;4999845;28;20041;-77
2022/10/28 00:28:55;;;;;;;1999.90;999.90;;;;;;;11.61;100.00;101344.41;5000334;28;20030;-77
2022/10/28 00:31:21;;;;;;;1999.90;999.90;;;;;;;11.74;100.00;101340.03;5001015;28;20034;-77
2022/10/28 00:33:47;;;;;;;1999.90;999.90;;;;;;;11.87;100.00;101337.41;5002229;28;20038;-77
2022/10/28 00:36:19;;;;;;;1999.90;999.90;;;;;;;11.99;100.00;101337.44;5001612;28;20097;-77
2022/10/28 00:38:45;;;;;;;1999.90;999.90;;;;;;;12.04;100.00;101328.63;4997830;28;20076;-77
2022/10/28 00:41:14;;;;;;;1999.90;999.90;;;;;;;12.14;100.00;101329.50;4997396;28;20117;-77
2022/10/28 00:43:41;;;;;;;1999.90;999.90;;;;;;;12.07;100.00;101325.09;4997888;28;20638;-77
2022/10/28 00:46:17;;;;;;;1999.90;999.90;;;;;;;12.08;100.00;101329.53;4996437;28;20034;-76
2022/10/28 00:48:46;;;;;;;1999.90;999.90;;;;;;;12.15;100.00;101325.09;4993706;28;20038;-77
2022/10/28 00:51:12;;;;;;;1999.90;999.90;;;;;;;12.29;100.00;101318.03;4997007;28;20417;-77
2022/10/28 00:53:40;;;;;;;1999.90;999.90;;;;;;;12.48;100.00;101310.97;4996975;28;20036;-77
2022/10/28 00:56:07;;;;;;;1999.90;999.90;;;;;;;12.66;100.00;101313.56;4997776;28;20034;-77
2022/10/28 00:58:33;;;;;;;1999.90;999.90;;;;;;;12.85;100.00;101314.41;5006704;28;20484;-77
2022/10/28 01:00:59;;;;;;;1999.90;999.90;;;;;;;12.88;100.00;101311.72;5001696;28;20030;-77
2022/10/28 01:03:24;;;;;;;1999.90;999.90;;;;;;;12.99;100.00;101313.47;4999714;28;20114;-77
2022/10/28 01:05:51;;;;;;;1999.90;999.90;;;;;;;13.05;100.00;101321.41;4999397;28;20070;-77
2022/10/28 01:08:16;;;;;;;1999.90;999.90;;;;;;;13.00;100.00;101316.13;5012010;28;20042;-77
2022/10/28 01:11:06;;;;;;;1999.90;999.90;;;;;;;13.04;100.00;101320.50;5001709;28;20397;-77
2022/10/28 01:14:04;;;;;;;1999.90;999.90;;;;;;;13.14;100.00;101309.00;4996952;28;20038;-77
2022/10/28 01:16:48;;;;;;;1999.90;999.90;;;;;;;13.23;100.00;101315.13;4994497;28;20044;-77
2022/10/28 01:19:41;;;;;;;1999.90;999.90;;;;;;;13.25;100.00;101313.38;4994670;28;20038;-77
2022/10/28 01:22:15;;;;;;;1999.90;999.90;;;;;;;13.25;100.00;101302.75;4995552;28;20049;-76
2022/10/28 01:25:25;;;;;;;1999.90;999.90;;;;;;;13.25;100.00;101298.34;5012782;28;20094;-77
2022/10/28 01:28:18;;;;;;;1999.90;999.90;;;;;;;13.23;100.00;101293.94;4994880;28;20038;-77
2022/10/28 01:31:09;;;;;;;1999.90;999.90;;;;;;;13.23;100.00;101293.94;4996426;28;20042;-77
2022/10/28 01:33:39;;;;;;;1999.90;999.90;;;;;;;13.25;100.00;101289.50;4997770;28;20061;-77
2022/10/28 01:36:16;;;;;;;1999.90;999.90;;;;;;;13.15;100.00;101292.22;4999047;28;20133;-77
2022/10/28 01:39:09;;;;;;;1999.90;999.90;;;;;;;13.10;100.00;101283.41;4999537;28;20034;-77
2022/10/28 01:41:45;;;;;;;1999.90;999.90;;;;;;;13.10;100.00;101287.84;4994705;28;20049;-77
2022/10/28 01:44:25;;;;;;;1999.90;999.90;;;;;;;13.06;100.00;101292.25;4994505;28;20416;-77
2022/10/28 01:47:08;;;;;;;1999.90;999.90;;;;;;;13.01;100.00;101288.72;4998221;28;20042;-77
2022/10/28 01:49:47;;;;;;;1999.90;999.90;;;;;;;12.97;100.00;101287.00;4995800;28;20038;-77
2022/10/28 01:52:15;;;;;;;1999.90;999.90;;;;;;;12.99;100.00;101290.50;4994839;28;20026;-77
2022/10/28 01:54:43;;;;;;;1999.90;999.90;;;;;;;13.05;100.00;101281.66;4998361;28;20030;-77
2022/10/28 01:57:12;;;;;;;1999.90;999.90;;;;;;;13.10;100.00;101282.53;4997541;28;20038;-77
2022/10/28 01:59:38;;;;;;;1999.90;999.90;;;;;;;13.16;100.00;101282.50;4997244;28;20038;-77
2022/10/28 02:02:03;;;;;;;1999.90;999.90;;;;;;;13.24;100.00;101275.38;4996768;28;20042;-77
2022/10/28 02:04:29;;;;;;;1999.90;999.90;;;;;;;13.32;100.00;101275.38;4997800;28;20448;-77
2022/10/28 02:06:58;;;;;;;1999.90;999.90;;;;;;;13.35;100.00;101276.22;4996947;28;20046;-77
2022/10/28 02:09:34;;;;;;;1999.90;999.90;;;;;;;13.28;100.00;101270.97;4996974;28;20124;-77
2022/10/28 02:12:19;;;;;;;1999.90;999.90;;;;;;;13.22;100.00;101268.31;4993224;28;20113;-77
2022/10/28 02:15:10;;;;;;;1999.90;999.90;;;;;;;13.27;100.00;101262.13;5000736;28;20046;-77
2022/10/28 02:18:17;;;;;;;1999.90;999.90;;;;;;;13.36;100.00;101258.53;4994505;28;20042;-77
2022/10/28 02:21:03;;;;;;;1999.90;999.90;;;;;;;13.38;100.00;101267.38;4995107;28;20121;-77
2022/10/28 02:23:46;;;;;;;1999.90;999.90;;;;;;;13.35;100.00;101257.66;4997649;28;20409;-77
2022/10/28 02:26:33;;;;;;;1999.90;999.90;;;;;;;13.39;100.00;101258.53;4994087;28;20034;-77
2022/10/28 02:29:26;;;;;;;1999.90;999.90;;;;;;;13.41;100.00;101262.03;4993931;28;20092;-77
2022/10/28 02:31:57;;;;;;;1999.90;999.90;;;;;;;13.43;100.00;101257.63;4987525;28;20160;-77
2022/10/28 02:34:29;;;;;;;1999.90;999.90;;;;;;;13.48;100.00;101263.78;4995875;28;20408;-77
2022/10/28 02:36:58;;;;;;;1999.90;999.90;;;;;;;13.48;100.00;101249.63;4992558;28;20056;-77
2022/10/28 02:39:29;;;;;;;1999.90;999.90;;;;;;;13.51;100.00;101254.91;4995859;28;20154;-77
2022/10/28 02:42:20;;;;;;;1999.90;999.90;;;;;;;13.48;100.00;101257.59;4994853;28;20042;-77
2022/10/28 02:44:56;;;;;;;1999.90;999.90;;;;;;;13.45;100.00;101252.31;4997554;28;20042;-77
2022/10/28 02:47:27;;;;;;;1999.90;999.90;;;;;;;13.42;100.00;101253.22;4999718;28;20119;-77
2022/10/28 02:49:59;;;;;;;1999.90;999.90;;;;;;;13.41;100.00;101248.78;4999265;28;20034;-77
2022/10/28 02:52:28;;;;;;;1999.90;999.90;;;;;;;13.40;100.00;101241.72;4995741;28;20046;-77
2022/10/28 02:54:55;;;;;;;1999.90;999.90;;;;;;;13.38;100.00;101246.16;4998801;28;20093;-77
2022/10/28 02:57:31;;;;;;;1999.90;999.90;;;;;;;13.30;100.00;101247.97;4998927;28;20034;-77
2022/10/28 02:59:59;;;;;;;1999.90;999.90;;;;;;;13.22;100.00;101250.63;4996660;28;20038;-78
2022/10/28 03:02:25;;;;;;;1999.90;999.90;;;;;;;13.19;100.00;101252.44;4998169;28;20041;-78
2022/10/28 03:04:51;;;;;;;1999.90;999.90;;;;;;;13.20;100.00;101247.09;4997838;28;20041;-77
2022/10/28 03:07:17;;;;;;;1999.90;999.90;;;;;;;13.28;100.00;101248.00;4997385;28;20046;-78
2022/10/28 03:09:42;;;;;;;1999.90;999.90;;;;;;;13.26;100.00;101247.13;4999047;28;20045;-77
2022/10/28 03:12:07;;;;;;;1999.90;999.90;;;;;;;13.24;100.00;101254.16;4998385;28;20049;-77
2022/10/28 03:14:33;;;;;;;1999.90;999.90;;;;;;;13.16;100.00;101248.91;4998462;28;20050;-77
2022/10/28 03:16:58;;;;;;;1999.90;999.90;;;;;;;13.14;100.00;101245.38;4998310;28;20034;-77
2022/10/28 03:19:23;;;;;;;1999.90;999.90;;;;;;;13.13;100.00;101248.94;5004143;28;20050;-77
2022/10/28 03:21:49;;;;;;;1999.90;999.90;;;;;;;13.14;100.00;101247.16;5002138;28;20046;-78
2022/10/28 03:24:14;;;;;;;1999.90;999.90;;;;;;;13.05;100.00;101239.28;5007055;28;20080;-77
2022/10/28 03:26:39;;;;;;;1999.90;999.90;;;;;;;12.97;100.00;101234.00;5001590;28;20038;-77
2022/10/28 03:29:05;;;;;;;1999.90;999.90;;;;;;;12.90;100.00;101234.91;5000985;28;20053;-77
2022/10/28 03:31:30;;;;;;;1999.90;999.90;;;;;;;12.82;100.00;101232.28;5002234;28;20038;-77
2022/10/28 03:33:55;;;;;;;1999.90;999.90;;;;;;;12.76;100.00;101240.28;5003783;28;20050;-77
2022/10/28 03:36:21;;;;;;;1999.90;999.90;;;;;;;12.70;100.00;101235.84;5001704;28;20034;-77
2022/10/28 03:38:46;;;;;;;1999.90;999.90;;;;;;;12.64;100.00;101233.25;4996530;28;20035;-77
2022/10/28 03:41:11;;;;;;;1999.90;999.90;;;;;;;12.51;100.00;101231.53;5004148;28;20038;-77
2022/10/28 03:43:37;;;;;;;1999.90;999.90;;;;;;;12.32;100.00;101237.75;5009124;28;20046;-77
2022/10/28 03:46:02;;;;;;;1999.90;999.90;;;;;;;12.23;100.00;101238.63;5007230;28;20089;-77
2022/10/28 03:48:27;;;;;;;1999.90;999.90;;;;;;;12.19;100.00;101236.91;5006768;28;20038;-77
2022/10/28 03:50:54;;;;;;;1999.90;999.90;;;;;;;12.15;100.00;101236.00;5004991;28;20042;-77
2022/10/28 03:53:19;;;;;;;1999.90;999.90;;;;;;;12.12;100.00;101240.44;5002042;28;20062;-77
2022/10/28 03:55:55;;;;;;;1999.90;999.90;;;;;;;12.13;100.00;101243.09;5003054;28;20319;-77
2022/10/28 03:58:21;;;;;;;1999.90;999.90;;;;;;;12.13;100.00;101248.38;4998671;28;20038;-77
2022/10/28 04:00:48;;;;;;;1999.90;999.90;;;;;;;12.11;100.00;101242.19;4999274;28;20038;-76
2022/10/28 04:03:14;;;;;;;1999.90;999.90;;;;;;;12.13;100.00;101243.09;4997989;28;20084;-76
2022/10/28 04:05:39;;;;;;;1999.90;999.90;;;;;;;12.10;100.00;101243.06;4997879;28;20516;-77
2022/10/28 04:08:04;;;;;;;1999.90;999.90;;;;;;;12.05;100.00;101247.47;4998804;28;20038;-76
2022/10/28 04:10:30;;;;;;;1999.90;999.90;;;;;;;12.04;100.00;101243.06;4997111;28;20069;-76
2022/10/28 04:13:00;;;;;;;1999.90;999.90;;;;;;;12.02;100.00;101251.00;4995961;28;20042;-76
2022/10/28 04:15:25;;;;;;;1999.90;999.90;;;;;;;12.00;100.00;101243.97;4994994;28;20038;-75
2022/10/28 04:17:51;;;;;;;1999.90;999.90;;;;;;;11.94;100.00;101236.91;4994219;28;20030;-76
2022/10/28 04:20:16;;;;;;;1999.90;999.90;;;;;;;11.92;100.00;101237.78;4993674;28;20042;-76
2022/10/28 04:22:42;;;;;;;1999.90;999.90;;;;;;;11.90;100.00;101243.09;4993518;28;20116;-76
2022/10/28 04:25:07;;;;;;;1999.90;999.90;;;;;;;11.93;100.00;101237.78;4994649;28;20045;-76
2022/10/28 04:27:32;;;;;;;1999.90;999.90;;;;;;;11.97;100.00;101243.94;4994314;28;20042;-76
2022/10/28 04:29:58;;;;;;;1999.90;999.90;;;;;;;11.92;100.00;101233.41;4993356;28;20061;-76
2022/10/28 04:32:23;;;;;;;1999.90;999.90;;;;;;;11.94;100.00;101236.91;4992419;28;20042;-76
2022/10/28 04:34:48;;;;;;;1999.90;999.90;;;;;;;11.95;100.00;101237.81;4992464;28;20046;-76
2022/10/28 04:37:14;;;;;;;1999.90;999.90;;;;;;;11.94;100.00;101241.31;4989241;28;20089;-76
2022/10/28 04:39:39;;;;;;;1999.90;999.90;;;;;;;11.94;100.00;101238.66;4993261;28;20046;-76
2022/10/28 04:42:04;;;;;;;1999.90;999.90;;;;;;;11.96;100.00;101240.44;4992646;28;20092;-76
2022/10/28 04:44:29;;;;;;;1999.90;999.90;;;;;;;11.97;100.00;101225.44;4992819;28;20042;-76
2022/10/28 04:46:55;;;;;;;1999.90;999.90;;;;;;;12.00;100.00;101217.53;4993433;28;20034;-76
2022/10/28 04:49:21;;;;;;;1999.90;999.90;;;;;;;11.99;100.00;101213.97;4993757;28;20046;-75
2022/10/28 04:51:46;;;;;;;1999.90;999.90;;;;;;;11.93;100.00;101218.41;4993667;28;20022;-76
2022/10/28 04:54:11;;;;;;;1999.90;999.90;;;;;;;11.95;100.00;101220.16;4993908;28;20452;-76
2022/10/28 04:56:36;;;;;;;1999.90;999.90;;;;;;;11.97;100.00;101209.56;4993507;28;20038;-76
2022/10/28 04:59:02;;;;;;;1999.90;999.90;;;;;;;11.99;100.00;101221.03;4993847;28;20440;-76
2022/10/28 05:01:27;;;;;;;1999.90;999.90;;;;;;;11.97;100.00;101214.84;4993349;28;20448;-76
2022/10/28 05:03:52;;;;;;;1999.90;999.90;;;;;;;12.03;100.00;101220.16;4994315;28;20069;-76
2022/10/28 05:06:18;;;;;;;1999.90;999.90;;;;;;;12.06;100.00;101214.88;4993138;28;20034;-76
2022/10/28 05:08:43;;;;;;;1999.90;999.90;;;;;;;12.04;100.00;101219.25;4994002;28;20042;-76
2022/10/28 05:11:08;;;;;;;1999.90;999.90;;;;;;;11.99;100.00;101215.75;4995120;28;20117;-76
2022/10/28 05:13:34;;;;;;;1999.90;999.90;;;;;;;12.05;100.00;101224.56;4992790;28;20088;-76
2022/10/28 05:15:59;;;;;;;1999.90;999.90;;;;;;;12.05;100.00;101221.00;4990317;28;20038;-73
2022/10/28 05:18:24;;;;;;;1999.90;999.90;;;;;;;11.97;100.00;101217.50;4993184;28;20173;-76
2022/10/28 05:20:53;;;;;;;1999.90;999.90;;;;;;;12.02;100.00;101224.53;4991758;28;20026;-76
2022/10/28 05:23:22;;;;;;;1999.90;999.90;;;;;;;12.02;100.00;101223.66;4991462;28;20125;-76
2022/10/28 05:25:50;;;;;;;1999.90;999.90;;;;;;;12.03;100.00;101220.16;4991410;28;20695;-76
2022/10/28 05:28:16;;;;;;;1999.90;999.90;;;;;;;12.07;100.00;101216.59;4991407;28;20061;-76
2022/10/28 05:30:43;;;;;;;1999.90;999.90;;;;;;;12.08;100.00;101218.41;4992240;28;20026;-76
2022/10/28 05:33:09;;;;;;;1999.90;999.90;;;;;;;12.04;100.00;101227.19;4992491;28;20041;-76
2022/10/28 05:35:36;;;;;;;1999.90;999.90;;;;;;;12.08;100.00;101218.41;4992618;28;20044;-76
2022/10/28 05:38:01;;;;;;;1999.90;999.90;;;;;;;12.11;100.00;101222.81;4993030;28;20489;-76
2022/10/28 05:40:27;;;;;;;1999.90;999.90;;;;;;;12.07;100.00;101228.06;4992787;28;20038;-76
2022/10/28 05:42:52;;;;;;;1999.90;999.90;;;;;;;12.09;100.00;101228.09;4992884;28;20034;-76
2022/10/28 05:45:17;;;;;;;1999.90;999.90;;;;;;;12.12;100.00;101225.44;4992674;28;20077;-76
2022/10/28 05:47:47;;;;;;;1999.90;999.90;;;;;;;12.19;100.00;101227.19;4990765;28;20042;-76
2022/10/28 05:50:15;;;;;;;1999.90;999.90;;;;;;;12.21;100.00;101213.97;4989623;28;20121;-76
2022/10/28 05:52:48;;;;;;;1999.90;999.90;;;;;;;12.20;100.00;101228.94;4992590;28;20109;-76
2022/10/28 05:55:14;;;;;;;1999.90;999.90;;;;;;;12.16;100.00;101227.19;4992692;28;20141;-76
2022/10/28 05:57:39;;;;;;;1999.90;999.90;;;;;;;12.13;100.00;101228.94;4992266;28;20508;-76
2022/10/28 06:00:05;;;;;;;1999.90;999.90;;;;;;;12.10;100.00;101228.97;4992242;28;20460;-76
2022/10/28 06:02:37;;;;;;;1999.90;999.90;;;;;;;12.07;100.00;101235.13;4992284;28;20093;-76
2022/10/28 06:05:03;;;;;;;1999.90;999.90;;;;;;;12.08;100.00;101228.97;4992301;28;20449;-76
2022/10/28 06:07:29;;;;;;;1999.90;999.90;;;;;;;12.10;100.00;101224.53;4992166;28;20444;-75
2022/10/28 06:09:54;;;;;;;1999.90;999.90;;;;;;;12.14;100.00;101228.97;4988743;28;20066;-76
2022/10/28 06:12:19;;;;;;;1999.90;999.90;;;;;;;12.16;100.00;101227.19;4991944;28;20153;-76
2022/10/28 06:14:45;;;;;;;1999.90;999.90;;;;;;;12.22;100.00;101221.88;4992254;28;20039;-76
2022/10/28 06:17:10;;;;;;;1999.90;999.90;;;;;;;12.30;100.00;101218.34;4992122;28;20085;-76
2022/10/28 06:19:35;;;;;;;1999.90;999.90;;;;;;;12.37;100.00;101222.75;4992545;28;20038;-76
2022/10/28 06:22:01;;;;;;;1999.90;999.90;;;;;;;12.29;100.00;101225.41;4991706;28;20034;-76
2022/10/28 06:24:26;;;;;;;1999.90;999.90;;;;;;;12.23;100.00;101234.22;4992159;28;20049;-76
2022/10/28 06:26:51;;;;;;;1999.90;999.90;;;;;;;12.17;100.00;101231.59;4992077;28;20046;-76
2022/10/28 06:29:17;;;;;;;1999.90;999.90;;;;;;;12.20;100.00;101233.34;4992066;28;20037;-75
2022/10/28 06:31:42;;;;;;;1999.90;999.90;;;;;;;12.25;100.00;101226.28;4999587;28;20408;-76
2022/10/28 06:34:09;;;;;;;1999.90;999.90;;;;;;;12.34;100.00;101235.97;4992067;28;20101;-76
2022/10/28 06:36:34;;;;;;;1999.90;999.90;;;;;;;12.33;100.00;101236.88;4991760;28;20500;-76
2022/10/28 06:39:00;;;;;;;1999.90;999.90;;;;;;;12.25;100.00;101248.34;4990927;28;20081;-76
2022/10/28 06:41:25;;;;;;;1999.90;999.90;;;;;;;12.20;100.00;101247.47;4991877;28;20099;-76
2022/10/28 06:43:50;;;;;;;1999.90;999.90;;;;;;;12.25;100.00;101245.69;4992059;28;20046;-76
2022/10/28 06:46:16;;;;;;;1999.90;999.90;;;;;;;12.34;100.00;101242.16;4991870;28;20046;-76
2022/10/28 06:48:41;;;;;;;1999.90;999.90;;;;;;;12.45;100.00;101245.66;4991890;28;20050;-76
2022/10/28 06:51:06;;;;;;;1999.90;999.90;;;;;;;12.55;100.00;101242.97;4991623;28;20049;-76
2022/10/28 06:53:32;;;;;;;1999.90;999.90;;;;;;;12.61;100.00;101251.78;4991741;28;20026;-76
2022/10/28 06:55:57;;;;;;;1999.90;999.90;;;;;;;12.67;100.00;101262.34;4989933;28;20053;-76
2022/10/28 06:58:24;;;;;;;1999.90;999.90;;;;;;;12.68;100.00;101266.78;4991084;28;20094;-76
2022/10/28 07:00:50;;;;;;;1999.90;999.90;;;;;;;12.65;100.00;101261.50;4993315;28;20030;-76
2022/10/28 07:03:17;;;;;;;1999.90;999.90;;;;;;;12.69;100.00;101255.28;4997138;28;20121;-76
2022/10/28 07:05:43;;;;;;;1999.90;999.90;;;;;;;12.75;100.00;101258.81;4995326;28;20113;-76
2022/10/28 07:08:09;;;;;;;1999.90;999.90;;;;;;;12.81;100.00;101266.72;4994670;28;20413;-76
2022/10/28 07:10:34;;;;;;;1999.90;999.90;;;;;;;12.80;100.00;101262.31;4992156;28;20042;-76
2022/10/28 07:12:59;;;;;;;1999.90;999.90;;;;;;;12.86;100.00;101267.59;4995838;28;20409;-75
2022/10/28 07:15:25;;;;;;;1999.90;999.90;;;;;;;12.96;100.00;101279.91;4993044;28;20488;-76
2022/10/28 07:17:52;;;;;;;1999.90;999.90;;;;;;;13.07;100.00;101288.72;4996525;28;20373;-76
2022/10/28 07:20:17;;;;;;;1999.90;999.90;;;;;;;13.18;100.00;101266.56;4994626;28;20060;-76
2022/10/28 07:22:42;;;;;;;1999.90;999.90;;;;;;;13.34;100.00;101273.59;4996756;28;20527;-76
2022/10/28 07:25:08;;;;;;;1999.90;999.90;;;;;;;13.49;100.00;101270.84;4996106;28;20519;-76
2022/10/28 07:27:33;;;;;;;1999.90;999.90;;;;;;;13.59;100.00;101266.34;4997857;28;20117;-76
2022/10/28 07:29:59;;;;;;;1999.90;999.90;;;;;;;13.71;100.00;101268.06;4999580;28;20036;-76
2022/10/28 07:32:24;;;;;;;1999.90;999.90;;;;;;;13.80;100.00;101262.66;4997124;28;20070;-76
2022/10/28 07:34:49;;;;;;;1999.90;999.90;;;;;;;13.90;100.00;101266.13;4995675;28;20049;-76
2022/10/28 07:37:15;;;;;;;1999.90;999.90;;;;;;;13.99;100.00;101269.59;4996228;28;20041;-76
2022/10/28 07:39:40;;;;;;;1999.90;999.90;;;;;;;14.12;100.00;101261.50;4994786;28;20038;-76
2022/10/28 07:42:05;;;;;;;1999.90;999.90;;;;;;;14.27;100.00;101250.75;4993146;28;20035;-76
2022/10/28 07:44:31;;;;;;;1999.90;999.90;;;;;;;14.33;100.00;101255.13;4994175;28;20038;-76
2022/10/28 07:46:56;;;;;;;1999.90;999.90;;;;;;;14.43;100.00;101255.00;4992302;28;20041;-75
2022/10/28 07:49:21;;;;;;;1999.90;999.90;;;;;;;14.51;100.00;101256.69;4993511;28;20046;-76
2022/10/28 07:51:49;;;;;;;1999.90;999.90;;;;;;;14.60;100.00;101257.53;4993968;28;20033;-76
2022/10/28 07:54:14;;;;;;;1999.90;999.90;;;;;;;14.66;100.00;101269.84;4995332;28;20037;-76
2022/10/28 07:56:40;;;;;;;1999.90;999.90;;;;;;;14.72;100.00;101274.22;4991576;28;20018;-76
2022/10/28 07:59:05;;;;;;;1999.90;999.90;;;;;;;14.79;100.00;101281.22;4995960;28;20047;-76
2022/10/28 08:01:30;;;;;;;1999.90;999.90;;;;;;;14.93;100.00;101289.03;4995157;28;20046;-76
2022/10/28 08:03:56;;;;;;;1999.90;999.90;;;;;;;15.07;100.00;101280.00;4995252;28;20030;-76
2022/10/28 08:06:21;;;;;;;1999.90;999.90;;;;;;;15.19;100.00;101276.28;4994919;28;20077;-76
2022/10/28 08:08:51;;;;;;;1999.90;999.90;;;;;;;15.27;100.00;101268.19;4995545;28;20031;-76
2022/10/28 08:11:18;;;;;;;1999.90;999.90;;;;;;;15.36;100.00;101276.06;4993803;28;20121;-76
2022/10/28 08:13:45;;;;;;;1999.90;999.90;;;;;;;15.41;100.00;101276.88;4993039;28;20042;-77
2022/10/28 08:16:10;;;;;;;1999.90;999.90;;;;;;;15.46;100.00;101269.72;4995892;28;20485;-76
2022/10/28 08:18:37;;;;;;;1999.90;999.90;;;;;;;15.52;100.00;101277.59;4995586;28;20041;-76
2022/10/28 08:21:04;;;;;;;1999.90;999.90;;;;;;;15.57;100.00;101267.75;4997205;28;20710;-76
2022/10/28 08:23:29;;;;;;;1999.90;999.90;;;;;;;15.61;100.00;101268.59;4996339;28;20035;-76
2022/10/28 08:25:55;;;;;;;1999.90;999.90;;;;;;;15.70;100.00;101256.97;4994009;28;20038;-76
2022/10/28 08:28:20;;;;;;;1999.90;999.90;;;;;;;15.78;100.00;101260.41;4991872;28;20034;-77
2022/10/28 08:30:46;;;;;;;1999.90;999.90;;;;;;;15.87;100.00;101257.56;4992830;28;20378;-76
2022/10/28 08:33:13;;;;;;;1999.90;999.90;;;;;;;15.99;100.00;101265.34;4993318;28;20026;-77
2022/10/28 08:35:38;;;;;;;1999.90;999.90;;;;;;;16.10;100.00;101259.84;4993091;28;20030;-76
2022/10/28 08:38:03;;;;;;;1999.90;999.90;;;;;;;16.20;100.00;101264.09;4993088;28;20034;-76
2022/10/28 08:40:47;;;;;;;1999.90;999.90;;;;;;;16.33;100.00;101259.44;4998929;28;20117;-76
2022/10/28 08:43:26;;;;;;;1999.90;999.90;;;;;;;16.48;98.11;101250.28;4993478;28;20042;-76
2022/10/28 08:45:58;;;;;;;1999.90;999.90;;;;;;;16.54;97.84;101258.16;4991465;28;20039;-76
2022/10/28 08:48:33;;;;;;;1999.90;999.90;;;;;;;16.65;96.08;101257.94;4991348;28;20038;-76
2022/10/28 08:51:10;;;;;;;1999.90;999.90;;;;;;;16.87;95.36;101255.75;4992149;28;20433;-76
2022/10/28 08:53:43;;;;;;;1999.90;999.90;;;;;;;17.00;94.76;101249.28;4992941;28;20038;-76
2022/10/28 08:56:24;;;;;;;1999.90;999.90;;;;;;;17.21;93.93;101247.03;4992846;28;20530;-76
2022/10/28 08:58:53;;;;;;;1999.90;999.90;;;;;;;17.37;91.15;101235.13;4989641;28;20034;-76
2022/10/28 09:01:31;;;;;;;1999.90;999.90;;;;;;;17.52;92.59;101237.41;4994317;28;20405;-76
2022/10/28 09:04:01;;;;;;;1999.90;999.90;;;;;;;17.79;91.21;101231.44;4986693;28;20489;-77
2022/10/28 09:06:26;;;;;;;1999.90;999.90;;;;;;;18.00;89.20;101230.03;4992156;28;20121;-77
2022/10/28 09:08:52;;;;;;;1999.90;999.90;;;;;;;18.31;88.92;101220.34;4994119;28;20104;-76
2022/10/28 09:11:29;;;;;;;1999.90;999.90;;;;;;;18.66;86.68;101222.94;4994330;28;20038;-76
2022/10/28 09:14:15;;;;;;;1999.90;999.90;;;;;;;18.91;84.94;101213.28;4991205;28;20046;-76
2022/10/28 09:19:24;;;;;;;1999.90;999.90;;;;;;;19.45;80.09;101207.16;4955000;28;20070;-78
2022/10/28 09:22:00;;;;;;;1999.90;999.90;;;;;;;19.70;80.27;101196.56;4950580;28;20089;-78
2022/10/28 09:24:35;;;;;;;1999.90;999.90;;;;;;;19.81;77.48;101181.94;4953259;29;20517;-79
2022/10/28 09:27:39;;;;;;;1999.90;999.90;;;;;;;19.86;77.31;101185.31;4955441;28;20031;-78
2022/10/28 09:30:19;;;;;;;1999.90;999.90;;;;;;;19.95;76.85;101174.28;4938987;28;20071;-78
2022/10/28 09:33:07;;;;;;;1999.90;999.90;;;;;;;20.05;75.80;101172.16;4970073;28;20050;-78
2022/10/28 09:35:41;;;;;;;1999.90;999.90;;;;;;;19.99;74.70;101175.94;4970816;28;20043;-79
2022/10/28 09:38:18;;;;;;;1999.90;999.90;;;;;;;19.95;74.68;101185.00;4972668;28;20058;-79
2022/10/28 09:40:51;;;;;;;1999.90;999.90;;;;;;;20.01;76.44;101178.53;4969961;28;20058;-80
2022/10/28 09:43:30;;;;;;;1999.90;999.90;;;;;;;20.01;76.41;101175.84;4972969;28;20049;-79
2022/10/28 09:46:26;;;;;;;1999.90;999.90;;;;;;;19.96;77.09;101170.66;4970494;28;20448;-79
2022/10/28 09:48:55;;;;;;;1999.90;999.90;;;;;;;19.94;78.75;101172.53;4956253;28;20409;-79
2022/10/28 09:51:45;;;;;;;1999.90;999.90;;;;;;;19.83;78.18;101180.06;4973389;28;20041;-79
2022/10/28 09:54:12;;;;;;;1999.90;999.90;;;;;;;19.83;79.82;101185.41;4973135;28;20039;-79
2022/10/28 09:56:38;;;;;;;1999.90;999.90;;;;;;;19.82;80.30;101183.66;4969496;28;20043;-79
2022/10/28 09:59:04;;;;;;;1999.90;999.90;;;;;;;19.82;80.04;101179.19;4973260;28;20452;-78
2022/10/28 10:01:33;;;;;;;1999.90;999.90;;;;;;;19.85;80.35;101178.19;4972251;28;20038;-79
2022/10/28 10:03:59;;;;;;;1999.90;999.90;;;;;;;19.80;80.25;101169.44;4974062;28;20113;-79
2022/10/28 10:06:41;;;;;;;1999.90;999.90;;;;;;;19.84;80.78;101161.25;4978001;28;20050;-79
2022/10/28 10:09:19;;;;;;;1999.90;999.90;;;;;;;19.95;80.97;101160.88;4975294;28;20049;-79
2022/10/28 10:11:47;;;;;;;1999.90;999.90;;;;;;;20.11;80.64;101159.41;4971235;28;20033;-80
2022/10/28 10:14:21;;;;;;;1999.90;999.90;;;;;;;20.25;79.56;101148.22;4972323;28;20058;-80
2022/10/28 10:17:01;;;;;;;1999.90;999.90;;;;;;;20.37;78.30;101146.88;4972097;28;20532;-80
2022/10/28 10:19:26;;;;;;;1999.90;999.90;;;;;;;20.56;78.92;101144.41;4971889;28;20054;-79
2022/10/28 10:21:53;;;;;;;1999.90;999.90;;;;;;;20.74;77.61;101142.81;4973781;28;20514;-79
2022/10/28 10:24:35;;;;;;;1999.90;999.90;;;;;;;21.04;75.70;101139.84;4973348;28;20038;-79
2022/10/28 10:27:11;;;;;;;1999.90;999.90;;;;;;;21.30;75.34;101131.66;4972976;28;20031;-78
2022/10/28 10:29:43;;;;;;;1999.90;999.90;;;;;;;21.53;71.72;101124.44;4969896;28;20034;-78
2022/10/28 10:32:23;;;;;;;1999.90;999.90;;;;;;;21.75;71.81;101117.22;4982602;28;20034;-79
2022/10/28 10:34:57;;;;;;;1999.90;999.90;;;;;;;21.92;72.02;101123.69;4970077;28;20039;-79
2022/10/28 10:37:23;;;;;;;1999.90;999.90;;;;;;;21.97;72.54;101121.66;4972555;28;20042;-78
2022/10/28 10:40:01;;;;;;;1999.90;999.90;;;;;;;21.95;71.94;101118.16;4972912;28;20058;-78
2022/10/28 10:42:27;;;;;;;1999.90;999.90;;;;;;;21.88;71.83;101113.06;4972061;28;20034;-79
2022/10/28 10:45:26;;;;;;;1999.90;999.90;;;;;;;21.91;71.41;101113.88;4971691;28;20532;-79
2022/10/28 10:48:12;;;;;;;1999.90;999.90;;;;;;;21.91;70.46;101111.19;4972395;28;20077;-79
2022/10/28 10:50:38;;;;;;;1999.90;999.90;;;;;;;21.96;70.59;101112.72;4979422;28;20043;-78
2022/10/28 10:53:04;;;;;;;1999.90;999.90;;;;;;;22.06;70.20;101105.13;4968425;28;20042;-79
2022/10/28 10:55:34;;;;;;;1999.90;999.90;;;;;;;22.03;68.79;101105.25;4972837;28;20034;-79
2022/10/28 10:58:00;;;;;;;1999.90;999.90;;;;;;;;;;4972903;28;20039;-79